createdAt,value
2023-03-01T00:01:49.595Z,10.55
2023-03-01T00:07:14.720Z,8.12
2023-03-01T00:12:39.476Z,9.93
2023-03-01T00:18:04.819Z,8.56
2023-03-01T00:23:26.695Z,10.16
2023-03-01T00:28:51.546Z,11.72
2023-03-01T00:34:10.397Z,10.61
2023-03-01T00:39:27.605Z,9.54
2023-03-01T00:44:48.544Z,12.12
2023-03-01T00:50:10.027Z,9.18
2023-03-01T00:55:34.602Z,10.01
2023-03-01T01:00:58.309Z,10.42
2023-03-01T01:06:38.972Z,12.15
2023-03-01T01:12:02.130Z,10.93
2023-03-01T01:17:26.854Z,9.99
2023-03-01T01:22:45.429Z,9.52
2023-03-01T01:28:34.837Z,11.70
2023-03-01T01:33:58.436Z,9.77
2023-03-01T01:39:16.490Z,10.81
2023-03-01T01:44:39.645Z,11.78
2023-03-01T01:49:59.183Z,10.71
2023-03-01T01:55:23.768Z,11.47
2023-03-01T02:00:43.152Z,11.76
2023-03-01T02:06:07.577Z,9.91
2023-03-01T02:11:28.708Z,12.14
2023-03-01T02:16:46.786Z,11.81
2023-03-01T02:22:08.990Z,11.27
2023-03-01T02:27:34.781Z,11.76
2023-03-01T02:32:58.844Z,11.69
2023-03-01T02:38:24.252Z,12.29
2023-03-01T02:43:43.486Z,9.85
2023-03-01T02:49:03.366Z,12.13
2023-03-01T02:54:36.526Z,13.82
2023-03-01T03:00:01.372Z,12.93
2023-03-01T03:05:24.005Z,11.11
2023-03-01T03:10:49.286Z,11.37
2023-03-01T03:16:13.147Z,11.76
2023-03-01T03:21:37.230Z,13.10
2023-03-01T03:26:54.471Z,12.78
2023-03-01T03:32:18.580Z,10.61
2023-03-01T03:37:37.443Z,11.02
2023-03-01T03:43:24.861Z,13.17
2023-03-01T03:49:01.623Z,14.03
2023-03-01T03:54:22.728Z,10.35
2023-03-01T03:59:41.666Z,13.85
2023-03-01T04:05:07.255Z,12.77
2023-03-01T04:10:25.725Z,13.10
2023-03-01T04:15:49.266Z,13.64
2023-03-01T04:21:14.783Z,15.03
2023-03-01T04:26:37.763Z,12.84
2023-03-01T04:32:03.460Z,11.55
2023-03-01T04:37:28.091Z,11.96
2023-03-01T04:42:47.578Z,10.55
2023-03-01T04:48:33.886Z,13.03
2023-03-01T04:53:53.135Z,12.32
2023-03-01T04:59:14.622Z,14.36
2023-03-01T05:04:39.597Z,13.60
2023-03-01T05:10:04.866Z,13.24
2023-03-01T05:15:25.880Z,11.48
2023-03-01T05:20:44.078Z,13.83
2023-03-01T05:26:16.089Z,13.40
2023-03-01T05:31:30.506Z,14.48
2023-03-01T05:36:52.483Z,11.91
2023-03-01T05:42:16.802Z,11.93
2023-03-01T05:47:40.747Z,12.11
2023-03-01T05:53:21.677Z,12.48
2023-03-01T05:58:45.123Z,13.52
2023-03-01T06:04:07.617Z,11.43
2023-03-01T06:09:32.731Z,11.14
2023-03-01T06:15:18.870Z,13.34
2023-03-01T06:20:42.127Z,11.42
2023-03-01T06:26:11.058Z,13.33
2023-03-01T06:31:33.629Z,10.92
2023-03-01T06:37:13.691Z,11.99
2023-03-01T06:42:36.577Z,12.75
2023-03-01T06:47:54.625Z,12.78
2023-03-01T06:53:46.087Z,13.94
2023-03-01T06:59:03.354Z,10.68
2023-03-01T07:04:28.243Z,14.76
2023-03-01T07:09:51.830Z,13.36
2023-03-01T07:15:15.830Z,11.92
2023-03-01T07:20:40.914Z,13.35
2023-03-01T07:26:05.256Z,13.86
2023-03-01T07:31:23.559Z,12.20
2023-03-01T07:36:42.285Z,12.00
2023-03-01T07:42:06.803Z,14.11
2023-03-01T07:47:32.148Z,12.48
2023-03-01T07:52:50.645Z,12.15
2023-03-01T07:58:09.056Z,13.83
2023-03-01T08:03:30.732Z,13.18
2023-03-01T08:08:49.138Z,13.06
2023-03-01T08:14:12.903Z,12.40
2023-03-01T08:19:37.773Z,12.02
2023-03-01T08:25:01.884Z,12.48
2023-03-01T08:30:25.738Z,12.28
2023-03-01T08:35:47.022Z,12.50
2023-03-01T08:41:09.575Z,17.40
2023-03-01T08:46:28.124Z,14.11
2023-03-01T08:51:52.291Z,13.24
2023-03-01T08:57:10.842Z,14.36
2023-03-01T09:02:36.168Z,14.85
2023-03-01T09:08:00.415Z,14.48
2023-03-01T09:13:25.935Z,14.76
2023-03-01T09:18:51.185Z,16.73
2023-03-01T09:24:15.416Z,16.15
2023-03-01T09:29:39.907Z,17.40
2023-03-01T09:35:05.110Z,15.26
2023-03-01T09:40:28.548Z,16.05
2023-03-01T09:45:53.464Z,17.80
2023-03-01T09:51:15.304Z,15.42
2023-03-01T09:56:39.909Z,15.34
2023-03-01T10:02:02.270Z,15.70
2023-03-01T10:07:29.975Z,19.43
2023-03-01T10:12:54.499Z,16.60
2023-03-01T10:18:19.821Z,17.39
2023-03-01T10:23:42.180Z,15.27
2023-03-01T10:29:07.336Z,14.44
2023-03-01T10:34:28.428Z,15.83
2023-03-01T10:40:04.921Z,14.50
2023-03-01T10:45:27.458Z,15.58
2023-03-01T10:50:50.257Z,13.40
2023-03-01T10:56:28.472Z,16.81
2023-03-01T11:02:12.086Z,16.37
2023-03-01T11:07:31.226Z,15.46
2023-03-01T11:13:14.825Z,14.49
2023-03-01T11:18:47.666Z,15.29
2023-03-01T11:24:03.604Z,16.45
2023-03-01T11:29:34.756Z,13.93
2023-03-01T11:35:49.005Z,16.28
2023-03-01T11:41:13.839Z,14.38
2023-03-01T11:46:58.236Z,17.71
2023-03-01T11:52:27.466Z,15.69
2023-03-01T11:57:48.352Z,14.87
2023-03-01T12:03:27.206Z,16.49
2023-03-01T12:09:04.661Z,14.11
2023-03-01T12:14:28.253Z,16.12
2023-03-01T12:19:59.338Z,15.05
2023-03-01T12:25:28.206Z,15.75
2023-03-01T12:30:49.157Z,16.55
2023-03-01T12:36:32.915Z,16.33
2023-03-01T12:42:09.467Z,14.03
2023-03-01T12:47:32.128Z,15.12
2023-03-01T12:52:56.330Z,15.89
2023-03-01T12:58:21.805Z,17.07
2023-03-01T13:03:41.732Z,13.83
2023-03-01T13:09:15.545Z,11.64
2023-03-01T13:14:42.200Z,14.51
2023-03-01T13:20:28.279Z,13.82
2023-03-01T13:25:46.906Z,12.84
2023-03-01T13:31:30.514Z,12.00
2023-03-01T13:37:19.133Z,12.48
2023-03-01T13:42:39.430Z,11.47
2023-03-01T13:47:58.604Z,12.33
2023-03-01T13:53:24.421Z,10.72
2023-03-01T13:58:43.619Z,9.86
2023-03-01T14:04:11.923Z,9.48
2023-03-01T14:09:34.792Z,17.40
2023-03-01T14:14:58.266Z,10.06
2023-03-01T14:20:23.418Z,9.12
2023-03-01T14:25:47.720Z,10.98
2023-03-01T14:31:12.197Z,9.66
2023-03-01T14:36:52.766Z,11.51
2023-03-01T14:42:18.220Z,9.81
2023-03-01T14:47:53.877Z,10.90
2023-03-01T14:53:42.716Z,9.89
2023-03-01T14:58:50.648Z,7.78
2023-03-01T15:04:58.288Z,10.09
2023-03-01T15:10:22.709Z,8.40
2023-03-01T15:16:10.745Z,9.10
2023-03-01T15:21:28.241Z,8.23
2023-03-01T15:26:53.048Z,7.85
2023-03-01T15:32:12.857Z,8.36
2023-03-01T15:37:43.539Z,10.46
2023-03-01T15:43:06.409Z,7.97
2023-03-01T15:48:27.079Z,8.44
2023-03-01T15:53:54.478Z,10.84
2023-03-01T15:59:12.676Z,11.12
2023-03-01T16:04:37.435Z,10.19
2023-03-01T16:10:02.639Z,11.39
2023-03-01T16:15:31.870Z,12.20
2023-03-01T16:20:55.833Z,11.20
2023-03-01T16:26:21.608Z,13.41
2023-03-01T16:31:39.540Z,8.92
2023-03-01T16:37:20.382Z,12.70
2023-03-01T16:42:44.659Z,12.42
2023-03-01T16:48:03.779Z,11.31
2023-03-01T16:53:28.329Z,9.65
2023-03-01T16:58:52.275Z,9.39
2023-03-01T17:04:14.964Z,14.50
2023-03-01T17:09:40.096Z,11.52
2023-03-01T17:15:05.495Z,13.53
2023-03-01T17:20:30.397Z,11.42
2023-03-01T17:25:51.539Z,12.45
2023-03-01T17:31:14.138Z,13.95
2023-03-01T17:36:39.366Z,10.77
2023-03-01T17:42:01.554Z,13.08
2023-03-01T17:47:20.062Z,16.20
2023-03-01T17:52:44.720Z,11.40
2023-03-01T17:58:10.186Z,13.38
2023-03-01T18:03:31.362Z,13.15
2023-03-01T18:08:56.018Z,13.37
2023-03-01T18:14:20.520Z,17.48
2023-03-01T18:19:38.664Z,14.36
2023-03-01T18:25:00.870Z,12.12
2023-03-01T18:30:25.937Z,16.55
2023-03-01T18:35:47.163Z,18.16
2023-03-01T18:41:05.566Z,16.59
2023-03-01T18:46:52.967Z,13.37
2023-03-01T18:52:16.992Z,15.34
2023-03-01T18:57:35.793Z,17.47
2023-03-01T19:02:57.243Z,13.49
2023-03-01T19:08:19.650Z,19.61
2023-03-01T19:13:38.545Z,13.96
2023-03-01T19:18:57.320Z,17.62
2023-03-01T19:24:21.681Z,16.29
2023-03-01T19:29:47.155Z,13.33
2023-03-01T19:35:11.440Z,16.52
2023-03-01T19:40:33.195Z,14.86
2023-03-01T19:45:56.113Z,11.72
2023-03-01T19:51:20.143Z,12.69
2023-03-01T19:56:38.638Z,15.64
2023-03-01T20:02:03.743Z,15.95
2023-03-01T20:07:52.554Z,14.38
2023-03-01T20:13:14.041Z,17.49
2023-03-01T20:18:38.655Z,14.30
2023-03-01T20:23:57.490Z,13.79
2023-03-01T20:29:22.866Z,12.81
2023-03-01T20:34:44.714Z,15.69
2023-03-01T20:40:08.814Z,12.94
2023-03-01T20:45:28.710Z,15.67
2023-03-01T20:50:50.801Z,13.42
2023-03-01T20:56:59.372Z,13.89
2023-03-01T21:02:20.702Z,14.28
2023-03-01T21:08:00.802Z,14.73
2023-03-01T21:13:25.270Z,15.25
2023-03-01T21:18:48.051Z,13.50
2023-03-01T21:24:55.362Z,18.52
2023-03-01T21:30:18.571Z,15.12
2023-03-01T21:35:44.174Z,15.22
2023-03-01T21:41:08.795Z,15.77
2023-03-01T21:46:34.414Z,14.31
2023-03-01T21:51:59.124Z,15.40
2023-03-01T21:57:22.076Z,14.82
2023-03-01T22:02:45.830Z,17.16
2023-03-01T22:08:08.059Z,16.16
2023-03-01T22:13:31.624Z,15.87
2023-03-01T22:18:56.586Z,13.72
2023-03-01T22:24:34.593Z,14.62
2023-03-01T22:29:56.310Z,13.24
2023-03-01T22:35:21.066Z,14.11
2023-03-01T22:40:44.973Z,12.98
2023-03-01T22:46:13.393Z,13.65
2023-03-01T22:51:36.532Z,16.96
2023-03-01T22:56:56.293Z,15.29
2023-03-01T23:02:14.670Z,14.63
2023-03-01T23:07:39.795Z,15.21
2023-03-01T23:13:04.939Z,14.70
2023-03-01T23:18:30.340Z,16.17
2023-03-01T23:23:53.981Z,16.38
2023-03-01T23:29:17.089Z,17.45
2023-03-01T23:35:04.618Z,15.64
2023-03-01T23:40:30.500Z,14.30
2023-03-01T23:45:56.796Z,18.32
2023-03-01T23:51:19.567Z,14.45
2023-03-01T23:56:40.520Z,16.46
